sensor_id;sensor_type;location;lat;lon;timestamp;temperature;humidity
5226;DHT22;2632;51.666;7.146;2024-01-27T00:00:50;5.00;83.30
5226;DHT22;2632;51.666;7.146;2024-01-27T00:03:17;5.00;83.00
5226;DHT22;2632;51.666;7.146;2024-01-27T00:05:44;4.90;83.00
5226;DHT22;2632;51.666;7.146;2024-01-27T00:08:11;4.90;83.40
5226;DHT22;2632;51.666;7.146;2024-01-27T00:10:37;4.70;83.70
5226;DHT22;2632;51.666;7.146;2024-01-27T00:13:04;4.70;84.00
5226;DHT22;2632;51.666;7.146;2024-01-27T00:15:31;4.80;83.90
5226;DHT22;2632;51.666;7.146;2024-01-27T00:17:58;4.90;83.50
5226;DHT22;2632;51.666;7.146;2024-01-27T00:20:24;4.80;83.80
5226;DHT22;2632;51.666;7.146;2024-01-27T00:22:51;4.70;83.70
5226;DHT22;2632;51.666;7.146;2024-01-27T00:25:18;4.70;84.30
5226;DHT22;2632;51.666;7.146;2024-01-27T00:27:44;4.70;83.60
5226;DHT22;2632;51.666;7.146;2024-01-27T00:30:12;4.70;83.90
5226;DHT22;2632;51.666;7.146;2024-01-27T00:32:39;4.60;84.20
5226;DHT22;2632;51.666;7.146;2024-01-27T00:35:07;4.60;84.00
5226;DHT22;2632;51.666;7.146;2024-01-27T00:37:34;4.70;84.10
5226;DHT22;2632;51.666;7.146;2024-01-27T00:40:01;4.60;84.50
5226;DHT22;2632;51.666;7.146;2024-01-27T00:42:27;4.60;84.30
5226;DHT22;2632;51.666;7.146;2024-01-27T00:44:54;4.60;84.50
5226;DHT22;2632;51.666;7.146;2024-01-27T00:47:21;4.60;84.40
5226;DHT22;2632;51.666;7.146;2024-01-27T00:49:47;4.60;83.90
5226;DHT22;2632;51.666;7.146;2024-01-27T00:52:14;4.60;84.50
5226;DHT22;2632;51.666;7.146;2024-01-27T00:54:41;4.60;84.20
5226;DHT22;2632;51.666;7.146;2024-01-27T00:57:07;4.70;84.00
5226;DHT22;2632;51.666;7.146;2024-01-27T00:59:34;4.60;83.80
5226;DHT22;2632;51.666;7.146;2024-01-27T01:02:01;4.40;84.20
5226;DHT22;2632;51.666;7.146;2024-01-27T01:04:27;4.40;84.50
5226;DHT22;2632;51.666;7.146;2024-01-27T01:06:54;4.40;84.70
5226;DHT22;2632;51.666;7.146;2024-01-27T01:09:21;4.40;84.60
5226;DHT22;2632;51.666;7.146;2024-01-27T01:11:48;4.50;84.20
5226;DHT22;2632;51.666;7.146;2024-01-27T01:14:15;4.50;84.50
5226;DHT22;2632;51.666;7.146;2024-01-27T01:16:41;4.70;83.90
5226;DHT22;2632;51.666;7.146;2024-01-27T01:19:08;4.70;84.40
5226;DHT22;2632;51.666;7.146;2024-01-27T01:21:36;4.60;83.80
5226;DHT22;2632;51.666;7.146;2024-01-27T01:24:02;4.60;83.90
5226;DHT22;2632;51.666;7.146;2024-01-27T01:26:29;4.60;83.90
5226;DHT22;2632;51.666;7.146;2024-01-27T01:28:56;4.60;83.90
5226;DHT22;2632;51.666;7.146;2024-01-27T01:31:22;4.60;83.70
5226;DHT22;2632;51.666;7.146;2024-01-27T01:33:49;4.60;83.50
5226;DHT22;2632;51.666;7.146;2024-01-27T01:36:16;4.60;83.80
5226;DHT22;2632;51.666;7.146;2024-01-27T01:38:42;4.60;83.60
5226;DHT22;2632;51.666;7.146;2024-01-27T01:41:09;4.50;83.80
5226;DHT22;2632;51.666;7.146;2024-01-27T01:43:36;4.60;84.00
5226;DHT22;2632;51.666;7.146;2024-01-27T01:46:03;4.50;83.60
5226;DHT22;2632;51.666;7.146;2024-01-27T01:48:29;4.40;83.80
5226;DHT22;2632;51.666;7.146;2024-01-27T01:50:57;4.40;84.30
5226;DHT22;2632;51.666;7.146;2024-01-27T01:53:25;4.40;84.20
5226;DHT22;2632;51.666;7.146;2024-01-27T01:55:53;4.30;84.00
5226;DHT22;2632;51.666;7.146;2024-01-27T01:58:19;4.20;84.60
5226;DHT22;2632;51.666;7.146;2024-01-27T02:00:46;4.10;84.80
5226;DHT22;2632;51.666;7.146;2024-01-27T02:03:13;3.90;85.20
5226;DHT22;2632;51.666;7.146;2024-01-27T02:05:40;3.90;85.50
5226;DHT22;2632;51.666;7.146;2024-01-27T02:08:07;3.80;85.50
5226;DHT22;2632;51.666;7.146;2024-01-27T02:10:35;3.80;85.50
5226;DHT22;2632;51.666;7.146;2024-01-27T02:15:45;3.50;85.80
5226;DHT22;2632;51.666;7.146;2024-01-27T02:18:12;3.50;86.20
5226;DHT22;2632;51.666;7.146;2024-01-27T02:20:39;3.50;86.10
5226;DHT22;2632;51.666;7.146;2024-01-27T02:23:06;3.50;86.00
5226;DHT22;2632;51.666;7.146;2024-01-27T02:25:33;3.40;86.30
5226;DHT22;2632;51.666;7.146;2024-01-27T02:28:00;3.30;86.20
5226;DHT22;2632;51.666;7.146;2024-01-27T02:30:29;3.30;86.90
5226;DHT22;2632;51.666;7.146;2024-01-27T02:32:57;3.20;86.70
5226;DHT22;2632;51.666;7.146;2024-01-27T02:35:24;3.10;86.70
5226;DHT22;2632;51.666;7.146;2024-01-27T02:37:51;3.10;86.80
5226;DHT22;2632;51.666;7.146;2024-01-27T02:40:18;3.00;87.40
5226;DHT22;2632;51.666;7.146;2024-01-27T02:42:45;3.00;86.80
5226;DHT22;2632;51.666;7.146;2024-01-27T02:45:11;2.90;87.40
5226;DHT22;2632;51.666;7.146;2024-01-27T02:47:39;2.80;87.90
5226;DHT22;2632;51.666;7.146;2024-01-27T02:50:06;2.80;87.90
5226;DHT22;2632;51.666;7.146;2024-01-27T02:52:33;2.80;87.50
5226;DHT22;2632;51.666;7.146;2024-01-27T02:55:00;2.80;87.60
5226;DHT22;2632;51.666;7.146;2024-01-27T02:57:27;2.80;87.70
5226;DHT22;2632;51.666;7.146;2024-01-27T02:59:54;2.90;87.10
5226;DHT22;2632;51.666;7.146;2024-01-27T03:02:21;2.90;87.10
5226;DHT22;2632;51.666;7.146;2024-01-27T03:04:47;2.80;86.80
5226;DHT22;2632;51.666;7.146;2024-01-27T03:07:14;2.70;88.00
5226;DHT22;2632;51.666;7.146;2024-01-27T03:09:41;2.70;87.60
5226;DHT22;2632;51.666;7.146;2024-01-27T03:12:07;2.50;88.00
5226;DHT22;2632;51.666;7.146;2024-01-27T03:14:34;2.50;88.30
5226;DHT22;2632;51.666;7.146;2024-01-27T03:17:01;2.40;88.50
5226;DHT22;2632;51.666;7.146;2024-01-27T03:19:28;2.50;88.80
5226;DHT22;2632;51.666;7.146;2024-01-27T03:21:55;2.50;88.10
5226;DHT22;2632;51.666;7.146;2024-01-27T03:24:21;2.50;87.90
5226;DHT22;2632;51.666;7.146;2024-01-27T03:26:48;2.50;87.90
5226;DHT22;2632;51.666;7.146;2024-01-27T03:29:15;2.30;88.50
5226;DHT22;2632;51.666;7.146;2024-01-27T03:31:41;2.40;88.40
5226;DHT22;2632;51.666;7.146;2024-01-27T03:34:08;2.40;88.10
5226;DHT22;2632;51.666;7.146;2024-01-27T03:36:35;2.30;89.00
5226;DHT22;2632;51.666;7.146;2024-01-27T03:39:02;2.20;89.00
5226;DHT22;2632;51.666;7.146;2024-01-27T03:41:30;2.20;89.20
5226;DHT22;2632;51.666;7.146;2024-01-27T03:43:56;2.20;88.90
5226;DHT22;2632;51.666;7.146;2024-01-27T03:46:23;2.20;89.80
5226;DHT22;2632;51.666;7.146;2024-01-27T03:48:49;2.30;88.50
5226;DHT22;2632;51.666;7.146;2024-01-27T03:51:16;2.10;88.80
5226;DHT22;2632;51.666;7.146;2024-01-27T03:53:43;2.20;88.90
5226;DHT22;2632;51.666;7.146;2024-01-27T03:56:13;2.20;88.30
5226;DHT22;2632;51.666;7.146;2024-01-27T03:58:39;2.10;88.70
5226;DHT22;2632;51.666;7.146;2024-01-27T04:01:06;2.10;88.60
5226;DHT22;2632;51.666;7.146;2024-01-27T04:03:33;2.10;89.40
5226;DHT22;2632;51.666;7.146;2024-01-27T04:06:00;2.10;88.00
5226;DHT22;2632;51.666;7.146;2024-01-27T04:08:30;2.00;89.60
5226;DHT22;2632;51.666;7.146;2024-01-27T04:10:56;2.00;88.60
5226;DHT22;2632;51.666;7.146;2024-01-27T04:13:23;2.10;88.30
5226;DHT22;2632;51.666;7.146;2024-01-27T04:15:50;2.00;88.30
5226;DHT22;2632;51.666;7.146;2024-01-27T04:18:17;2.00;88.80
5226;DHT22;2632;51.666;7.146;2024-01-27T04:20:44;2.00;88.20
5226;DHT22;2632;51.666;7.146;2024-01-27T04:23:12;2.00;88.60
5226;DHT22;2632;51.666;7.146;2024-01-27T04:25:39;1.90;88.60
5226;DHT22;2632;51.666;7.146;2024-01-27T04:28:06;1.90;88.40
5226;DHT22;2632;51.666;7.146;2024-01-27T04:30:32;1.80;88.80
5226;DHT22;2632;51.666;7.146;2024-01-27T04:32:59;1.80;88.40
5226;DHT22;2632;51.666;7.146;2024-01-27T04:35:26;1.80;88.20
5226;DHT22;2632;51.666;7.146;2024-01-27T04:37:53;1.80;88.10
5226;DHT22;2632;51.666;7.146;2024-01-27T04:40:19;1.80;88.10
5226;DHT22;2632;51.666;7.146;2024-01-27T04:42:46;1.60;89.20
5226;DHT22;2632;51.666;7.146;2024-01-27T04:45:14;1.70;89.20
5226;DHT22;2632;51.666;7.146;2024-01-27T04:47:41;1.70;88.90
5226;DHT22;2632;51.666;7.146;2024-01-27T04:50:08;1.50;89.60
5226;DHT22;2632;51.666;7.146;2024-01-27T04:52:36;1.60;89.80
5226;DHT22;2632;51.666;7.146;2024-01-27T04:55:03;1.50;89.30
5226;DHT22;2632;51.666;7.146;2024-01-27T04:57:29;1.50;89.70
5226;DHT22;2632;51.666;7.146;2024-01-27T04:59:56;1.50;89.90
5226;DHT22;2632;51.666;7.146;2024-01-27T05:02:23;1.50;89.50
5226;DHT22;2632;51.666;7.146;2024-01-27T05:04:49;1.60;89.00
5226;DHT22;2632;51.666;7.146;2024-01-27T05:07:16;1.50;88.80
5226;DHT22;2632;51.666;7.146;2024-01-27T05:09:43;1.30;89.10
5226;DHT22;2632;51.666;7.146;2024-01-27T05:12:09;1.40;89.30
5226;DHT22;2632;51.666;7.146;2024-01-27T05:14:36;1.40;89.40
5226;DHT22;2632;51.666;7.146;2024-01-27T05:17:03;1.40;89.50
5226;DHT22;2632;51.666;7.146;2024-01-27T05:19:29;1.40;89.10
5226;DHT22;2632;51.666;7.146;2024-01-27T05:21:56;1.40;89.50
5226;DHT22;2632;51.666;7.146;2024-01-27T05:24:23;1.40;89.20
5226;DHT22;2632;51.666;7.146;2024-01-27T05:26:49;1.40;88.90
5226;DHT22;2632;51.666;7.146;2024-01-27T05:29:16;1.40;89.40
5226;DHT22;2632;51.666;7.146;2024-01-27T05:31:43;1.40;89.40
5226;DHT22;2632;51.666;7.146;2024-01-27T05:34:11;1.40;89.10
5226;DHT22;2632;51.666;7.146;2024-01-27T05:36:38;1.40;89.10
5226;DHT22;2632;51.666;7.146;2024-01-27T05:39:04;1.40;89.40
5226;DHT22;2632;51.666;7.146;2024-01-27T05:41:32;1.40;88.90
5226;DHT22;2632;51.666;7.146;2024-01-27T05:43:59;1.30;89.10
5226;DHT22;2632;51.666;7.146;2024-01-27T05:46:26;1.50;89.20
5226;DHT22;2632;51.666;7.146;2024-01-27T05:48:53;1.40;88.90
5226;DHT22;2632;51.666;7.146;2024-01-27T05:51:27;1.40;89.10
5226;DHT22;2632;51.666;7.146;2024-01-27T05:53:54;1.40;88.50
5226;DHT22;2632;51.666;7.146;2024-01-27T05:56:21;1.40;88.20
5226;DHT22;2632;51.666;7.146;2024-01-27T05:58:48;1.40;88.60
5226;DHT22;2632;51.666;7.146;2024-01-27T06:01:17;1.10;89.20
5226;DHT22;2632;51.666;7.146;2024-01-27T06:03:45;1.30;89.70
5226;DHT22;2632;51.666;7.146;2024-01-27T06:06:12;1.20;89.70
5226;DHT22;2632;51.666;7.146;2024-01-27T06:08:39;1.30;89.10
5226;DHT22;2632;51.666;7.146;2024-01-27T06:11:06;1.20;89.40
5226;DHT22;2632;51.666;7.146;2024-01-27T06:13:36;1.20;88.90
5226;DHT22;2632;51.666;7.146;2024-01-27T06:16:08;1.10;89.20
5226;DHT22;2632;51.666;7.146;2024-01-27T06:18:38;1.20;89.10
5226;DHT22;2632;51.666;7.146;2024-01-27T06:21:05;1.20;89.10
5226;DHT22;2632;51.666;7.146;2024-01-27T06:23:33;1.20;89.20
5226;DHT22;2632;51.666;7.146;2024-01-27T06:26:05;1.20;89.70
5226;DHT22;2632;51.666;7.146;2024-01-27T06:28:31;1.20;88.70
5226;DHT22;2632;51.666;7.146;2024-01-27T06:30:58;1.10;89.00
5226;DHT22;2632;51.666;7.146;2024-01-27T06:33:24;1.00;89.80
5226;DHT22;2632;51.666;7.146;2024-01-27T06:35:51;1.00;89.60
5226;DHT22;2632;51.666;7.146;2024-01-27T06:38:18;1.00;89.80
5226;DHT22;2632;51.666;7.146;2024-01-27T06:40:44;1.00;89.40
5226;DHT22;2632;51.666;7.146;2024-01-27T06:43:13;1.00;89.90
5226;DHT22;2632;51.666;7.146;2024-01-27T06:45:40;1.10;89.50
5226;DHT22;2632;51.666;7.146;2024-01-27T06:48:07;1.10;89.10
5226;DHT22;2632;51.666;7.146;2024-01-27T06:50:34;0.90;89.70
5226;DHT22;2632;51.666;7.146;2024-01-27T06:53:01;1.00;90.10
5226;DHT22;2632;51.666;7.146;2024-01-27T06:55:28;1.00;89.70
5226;DHT22;2632;51.666;7.146;2024-01-27T06:57:54;1.10;90.20
5226;DHT22;2632;51.666;7.146;2024-01-27T07:00:21;1.20;89.20
5226;DHT22;2632;51.666;7.146;2024-01-27T07:02:48;1.10;89.40
5226;DHT22;2632;51.666;7.146;2024-01-27T07:05:15;1.10;89.80
5226;DHT22;2632;51.666;7.146;2024-01-27T07:07:42;1.20;89.30
5226;DHT22;2632;51.666;7.146;2024-01-27T07:10:08;1.10;90.10
5226;DHT22;2632;51.666;7.146;2024-01-27T07:12:35;1.60;90.00
5226;DHT22;2632;51.666;7.146;2024-01-27T07:15:03;1.90;86.90
5226;DHT22;2632;51.666;7.146;2024-01-27T07:17:30;1.50;88.40
5226;DHT22;2632;51.666;7.146;2024-01-27T07:19:56;1.50;89.30
5226;DHT22;2632;51.666;7.146;2024-01-27T07:22:23;1.10;88.30
5226;DHT22;2632;51.666;7.146;2024-01-27T07:24:50;1.00;90.00
5226;DHT22;2632;51.666;7.146;2024-01-27T07:27:18;1.20;89.70
5226;DHT22;2632;51.666;7.146;2024-01-27T07:29:45;1.30;90.00
5226;DHT22;2632;51.666;7.146;2024-01-27T07:32:12;1.40;88.80
5226;DHT22;2632;51.666;7.146;2024-01-27T07:34:43;1.30;89.20
5226;DHT22;2632;51.666;7.146;2024-01-27T07:37:10;1.40;88.90
5226;DHT22;2632;51.666;7.146;2024-01-27T07:39:37;1.40;88.20
5226;DHT22;2632;51.666;7.146;2024-01-27T07:42:04;1.40;88.00
5226;DHT22;2632;51.666;7.146;2024-01-27T07:44:32;1.30;88.20
5226;DHT22;2632;51.666;7.146;2024-01-27T07:46:59;1.30;88.00
5226;DHT22;2632;51.666;7.146;2024-01-27T07:49:25;1.30;88.00
5226;DHT22;2632;51.666;7.146;2024-01-27T07:51:52;1.30;88.20
5226;DHT22;2632;51.666;7.146;2024-01-27T07:54:19;1.30;87.90
5226;DHT22;2632;51.666;7.146;2024-01-27T07:56:46;1.40;88.20
5226;DHT22;2632;51.666;7.146;2024-01-27T07:59:12;1.50;88.20
5226;DHT22;2632;51.666;7.146;2024-01-27T08:01:41;1.30;89.00
5226;DHT22;2632;51.666;7.146;2024-01-27T08:04:08;1.30;89.70
5226;DHT22;2632;51.666;7.146;2024-01-27T08:06:49;2.30;87.50
5226;DHT22;2632;51.666;7.146;2024-01-27T08:09:18;3.40;82.80
5226;DHT22;2632;51.666;7.146;2024-01-27T08:11:45;4.10;78.90
5226;DHT22;2632;51.666;7.146;2024-01-27T08:14:12;4.40;77.30
5226;DHT22;2632;51.666;7.146;2024-01-27T08:16:39;4.60;76.60
5226;DHT22;2632;51.666;7.146;2024-01-27T08:19:05;4.20;76.90
5226;DHT22;2632;51.666;7.146;2024-01-27T08:21:32;3.40;80.50
5226;DHT22;2632;51.666;7.146;2024-01-27T08:23:59;2.80;83.40
5226;DHT22;2632;51.666;7.146;2024-01-27T08:26:26;2.60;85.10
5226;DHT22;2632;51.666;7.146;2024-01-27T08:28:52;2.40;86.00
5226;DHT22;2632;51.666;7.146;2024-01-27T08:31:20;2.50;87.30
5226;DHT22;2632;51.666;7.146;2024-01-27T08:33:47;2.90;87.80
5226;DHT22;2632;51.666;7.146;2024-01-27T08:36:14;3.20;86.70
5226;DHT22;2632;51.666;7.146;2024-01-27T08:38:41;3.20;86.50
5226;DHT22;2632;51.666;7.146;2024-01-27T08:41:08;3.30;86.70
5226;DHT22;2632;51.666;7.146;2024-01-27T08:43:35;3.30;86.60
5226;DHT22;2632;51.666;7.146;2024-01-27T08:46:01;3.50;86.50
5226;DHT22;2632;51.666;7.146;2024-01-27T08:48:28;3.60;86.30
5226;DHT22;2632;51.666;7.146;2024-01-27T08:50:57;3.60;85.90
5226;DHT22;2632;51.666;7.146;2024-01-27T08:53:24;3.70;85.80
5226;DHT22;2632;51.666;7.146;2024-01-27T08:55:51;3.80;85.70
5226;DHT22;2632;51.666;7.146;2024-01-27T08:58:17;3.90;85.50
5226;DHT22;2632;51.666;7.146;2024-01-27T09:00:44;3.90;85.30
5226;DHT22;2632;51.666;7.146;2024-01-27T09:03:11;4.10;84.80
5226;DHT22;2632;51.666;7.146;2024-01-27T09:05:39;4.20;84.40
5226;DHT22;2632;51.666;7.146;2024-01-27T09:08:07;4.30;84.30
5226;DHT22;2632;51.666;7.146;2024-01-27T09:10:34;4.30;84.20
5226;DHT22;2632;51.666;7.146;2024-01-27T09:13:01;4.40;84.10
5226;DHT22;2632;51.666;7.146;2024-01-27T09:15:27;4.50;84.00
5226;DHT22;2632;51.666;7.146;2024-01-27T09:17:54;4.60;83.50
5226;DHT22;2632;51.666;7.146;2024-01-27T09:20:22;4.60;82.70
5226;DHT22;2632;51.666;7.146;2024-01-27T09:22:49;4.60;83.10
5226;DHT22;2632;51.666;7.146;2024-01-27T09:25:17;4.70;82.70
5226;DHT22;2632;51.666;7.146;2024-01-27T09:27:43;4.80;82.50
5226;DHT22;2632;51.666;7.146;2024-01-27T09:30:10;4.80;82.20
5226;DHT22;2632;51.666;7.146;2024-01-27T09:32:37;5.00;81.60
5226;DHT22;2632;51.666;7.146;2024-01-27T09:35:04;5.00;81.40
5226;DHT22;2632;51.666;7.146;2024-01-27T09:37:31;5.00;81.50
5226;DHT22;2632;51.666;7.146;2024-01-27T09:39:59;5.10;81.60
5226;DHT22;2632;51.666;7.146;2024-01-27T09:42:29;5.20;80.90
5226;DHT22;2632;51.666;7.146;2024-01-27T09:44:58;5.30;81.00
5226;DHT22;2632;51.666;7.146;2024-01-27T09:47:25;5.40;80.40
5226;DHT22;2632;51.666;7.146;2024-01-27T09:49:52;5.50;79.70
5226;DHT22;2632;51.666;7.146;2024-01-27T09:52:19;5.60;79.50
5226;DHT22;2632;51.666;7.146;2024-01-27T09:54:47;5.60;79.60
5226;DHT22;2632;51.666;7.146;2024-01-27T09:57:14;5.70;79.50
5226;DHT22;2632;51.666;7.146;2024-01-27T09:59:42;5.70;79.20
5226;DHT22;2632;51.666;7.146;2024-01-27T10:02:11;5.70;79.30
5226;DHT22;2632;51.666;7.146;2024-01-27T10:04:41;5.70;79.20
5226;DHT22;2632;51.666;7.146;2024-01-27T10:07:08;5.80;78.90
5226;DHT22;2632;51.666;7.146;2024-01-27T10:09:35;5.90;78.90
5226;DHT22;2632;51.666;7.146;2024-01-27T10:12:02;6.00;78.80
5226;DHT22;2632;51.666;7.146;2024-01-27T10:14:40;6.00;78.10
5226;DHT22;2632;51.666;7.146;2024-01-27T10:17:10;6.00;78.40
5226;DHT22;2632;51.666;7.146;2024-01-27T10:19:37;6.10;78.20
5226;DHT22;2632;51.666;7.146;2024-01-27T10:22:09;6.20;78.10
5226;DHT22;2632;51.666;7.146;2024-01-27T10:24:36;6.30;77.70
5226;DHT22;2632;51.666;7.146;2024-01-27T10:27:03;6.40;77.20
5226;DHT22;2632;51.666;7.146;2024-01-27T10:29:31;6.30;76.60
5226;DHT22;2632;51.666;7.146;2024-01-27T10:32:07;6.40;77.20
5226;DHT22;2632;51.666;7.146;2024-01-27T10:34:35;6.50;77.00
5226;DHT22;2632;51.666;7.146;2024-01-27T10:37:02;6.60;76.80
5226;DHT22;2632;51.666;7.146;2024-01-27T10:39:29;6.70;76.00
5226;DHT22;2632;51.666;7.146;2024-01-27T10:41:55;6.70;75.60
5226;DHT22;2632;51.666;7.146;2024-01-27T10:44:22;6.80;75.60
5226;DHT22;2632;51.666;7.146;2024-01-27T10:46:49;6.80;76.20
5226;DHT22;2632;51.666;7.146;2024-01-27T10:49:17;6.90;76.00
5226;DHT22;2632;51.666;7.146;2024-01-27T10:51:54;7.00;75.50
5226;DHT22;2632;51.666;7.146;2024-01-27T10:54:25;7.00;74.20
5226;DHT22;2632;51.666;7.146;2024-01-27T10:56:56;7.00;74.70
5226;DHT22;2632;51.666;7.146;2024-01-27T10:59:23;7.10;73.60
5226;DHT22;2632;51.666;7.146;2024-01-27T11:01:52;7.20;74.00
5226;DHT22;2632;51.666;7.146;2024-01-27T11:04:21;7.50;74.20
5226;DHT22;2632;51.666;7.146;2024-01-27T11:06:48;9.00;69.20
5226;DHT22;2632;51.666;7.146;2024-01-27T11:09:17;10.20;63.60
5226;DHT22;2632;51.666;7.146;2024-01-27T11:11:45;10.80;60.50
5226;DHT22;2632;51.666;7.146;2024-01-27T11:14:12;11.00;60.00
5226;DHT22;2632;51.666;7.146;2024-01-27T11:16:39;12.00;58.60
5226;DHT22;2632;51.666;7.146;2024-01-27T11:19:11;12.70;55.30
5226;DHT22;2632;51.666;7.146;2024-01-27T11:21:38;13.60;53.60
5226;DHT22;2632;51.666;7.146;2024-01-27T11:24:15;14.70;50.00
5226;DHT22;2632;51.666;7.146;2024-01-27T11:26:43;15.20;48.00
5226;DHT22;2632;51.666;7.146;2024-01-27T11:29:10;15.50;48.20
5226;DHT22;2632;51.666;7.146;2024-01-27T11:31:46;15.20;47.10
5226;DHT22;2632;51.666;7.146;2024-01-27T11:34:13;15.60;47.80
5226;DHT22;2632;51.666;7.146;2024-01-27T11:36:43;15.80;46.80
5226;DHT22;2632;51.666;7.146;2024-01-27T11:39:27;16.20;45.60
5226;DHT22;2632;51.666;7.146;2024-01-27T11:42:10;16.10;44.90
5226;DHT22;2632;51.666;7.146;2024-01-27T11:44:41;16.50;45.80
5226;DHT22;2632;51.666;7.146;2024-01-27T11:47:15;16.70;44.70
5226;DHT22;2632;51.666;7.146;2024-01-27T11:49:44;16.90;44.10
5226;DHT22;2632;51.666;7.146;2024-01-27T11:52:16;16.80;44.70
5226;DHT22;2632;51.666;7.146;2024-01-27T11:54:44;17.00;43.80
5226;DHT22;2632;51.666;7.146;2024-01-27T11:57:11;16.80;44.20
5226;DHT22;2632;51.666;7.146;2024-01-27T11:59:37;16.70;44.60
5226;DHT22;2632;51.666;7.146;2024-01-27T12:02:04;15.50;45.40
5226;DHT22;2632;51.666;7.146;2024-01-27T12:04:32;14.40;48.10
5226;DHT22;2632;51.666;7.146;2024-01-27T12:06:59;13.40;50.80
5226;DHT22;2632;51.666;7.146;2024-01-27T12:09:26;12.90;53.50
5226;DHT22;2632;51.666;7.146;2024-01-27T12:11:53;12.50;53.90
5226;DHT22;2632;51.666;7.146;2024-01-27T12:14:20;12.30;54.30
5226;DHT22;2632;51.666;7.146;2024-01-27T12:16:47;12.00;54.60
5226;DHT22;2632;51.666;7.146;2024-01-27T12:19:14;11.80;55.10
5226;DHT22;2632;51.666;7.146;2024-01-27T12:21:48;11.70;56.00
5226;DHT22;2632;51.666;7.146;2024-01-27T12:24:18;11.40;56.70
5226;DHT22;2632;51.666;7.146;2024-01-27T12:26:48;11.20;56.80
5226;DHT22;2632;51.666;7.146;2024-01-27T12:29:14;11.30;57.20
5226;DHT22;2632;51.666;7.146;2024-01-27T12:31:41;11.60;56.80
5226;DHT22;2632;51.666;7.146;2024-01-27T12:34:08;12.00;54.70
5226;DHT22;2632;51.666;7.146;2024-01-27T12:36:43;12.00;54.40
5226;DHT22;2632;51.666;7.146;2024-01-27T12:39:10;12.30;54.80
5226;DHT22;2632;51.666;7.146;2024-01-27T12:41:37;13.70;51.50
5226;DHT22;2632;51.666;7.146;2024-01-27T12:44:06;13.70;49.80
5226;DHT22;2632;51.666;7.146;2024-01-27T12:46:32;13.80;49.90
5226;DHT22;2632;51.666;7.146;2024-01-27T12:48:59;14.00;49.50
5226;DHT22;2632;51.666;7.146;2024-01-27T12:51:26;15.00;48.00
5226;DHT22;2632;51.666;7.146;2024-01-27T12:53:53;15.10;46.70
5226;DHT22;2632;51.666;7.146;2024-01-27T12:56:19;14.40;47.60
5226;DHT22;2632;51.666;7.146;2024-01-27T12:58:46;14.50;48.80
5226;DHT22;2632;51.666;7.146;2024-01-27T13:01:13;13.80;48.40
5226;DHT22;2632;51.666;7.146;2024-01-27T13:03:40;14.30;49.30
5226;DHT22;2632;51.666;7.146;2024-01-27T13:06:11;15.30;47.40
5226;DHT22;2632;51.666;7.146;2024-01-27T13:08:39;16.30;44.50
5226;DHT22;2632;51.666;7.146;2024-01-27T13:11:06;16.50;43.60
5226;DHT22;2632;51.666;7.146;2024-01-27T13:13:32;16.10;43.60
5226;DHT22;2632;51.666;7.146;2024-01-27T13:15:59;15.40;44.90
5226;DHT22;2632;51.666;7.146;2024-01-27T13:18:26;15.40;44.90
5226;DHT22;2632;51.666;7.146;2024-01-27T13:20:53;15.30;45.50
5226;DHT22;2632;51.666;7.146;2024-01-27T13:23:19;15.90;45.00
5226;DHT22;2632;51.666;7.146;2024-01-27T13:25:46;16.10;44.10
5226;DHT22;2632;51.666;7.146;2024-01-27T13:28:33;16.50;43.00
5226;DHT22;2632;51.666;7.146;2024-01-27T13:31:00;17.00;42.90
5226;DHT22;2632;51.666;7.146;2024-01-27T13:33:26;16.70;42.30
5226;DHT22;2632;51.666;7.146;2024-01-27T13:35:55;16.90;42.60
5226;DHT22;2632;51.666;7.146;2024-01-27T13:38:22;17.40;41.40
5226;DHT22;2632;51.666;7.146;2024-01-27T13:40:53;16.90;41.40
5226;DHT22;2632;51.666;7.146;2024-01-27T13:43:19;16.00;43.10
5226;DHT22;2632;51.666;7.146;2024-01-27T13:45:46;14.70;46.00
5226;DHT22;2632;51.666;7.146;2024-01-27T13:48:14;14.50;47.10
5226;DHT22;2632;51.666;7.146;2024-01-27T13:50:42;14.70;46.80
5226;DHT22;2632;51.666;7.146;2024-01-27T13:53:09;14.30;47.80
5226;DHT22;2632;51.666;7.146;2024-01-27T13:55:35;14.30;47.80
5226;DHT22;2632;51.666;7.146;2024-01-27T13:58:03;14.00;48.50
5226;DHT22;2632;51.666;7.146;2024-01-27T14:00:31;14.10;48.30
5226;DHT22;2632;51.666;7.146;2024-01-27T14:03:01;14.00;48.70
5226;DHT22;2632;51.666;7.146;2024-01-27T14:05:28;13.60;49.20
5226;DHT22;2632;51.666;7.146;2024-01-27T14:07:54;13.70;49.80
5226;DHT22;2632;51.666;7.146;2024-01-27T14:10:21;14.50;48.70
5226;DHT22;2632;51.666;7.146;2024-01-27T14:12:48;14.80;47.60
5226;DHT22;2632;51.666;7.146;2024-01-27T14:15:14;14.80;46.90
5226;DHT22;2632;51.666;7.146;2024-01-27T14:17:44;14.40;47.70
5226;DHT22;2632;51.666;7.146;2024-01-27T14:20:12;13.70;47.90
5226;DHT22;2632;51.666;7.146;2024-01-27T14:22:39;13.30;49.60
5226;DHT22;2632;51.666;7.146;2024-01-27T14:25:06;12.80;50.30
5226;DHT22;2632;51.666;7.146;2024-01-27T14:27:34;12.20;52.00
5226;DHT22;2632;51.666;7.146;2024-01-27T14:30:01;12.30;52.70
5226;DHT22;2632;51.666;7.146;2024-01-27T14:32:28;12.70;51.30
5226;DHT22;2632;51.666;7.146;2024-01-27T14:34:55;12.30;51.50
5226;DHT22;2632;51.666;7.146;2024-01-27T14:37:23;11.80;52.80
5226;DHT22;2632;51.666;7.146;2024-01-27T14:39:50;11.30;54.50
5226;DHT22;2632;51.666;7.146;2024-01-27T14:42:16;11.00;55.40
5226;DHT22;2632;51.666;7.146;2024-01-27T14:44:46;10.60;54.90
5226;DHT22;2632;51.666;7.146;2024-01-27T14:47:15;10.40;55.50
5226;DHT22;2632;51.666;7.146;2024-01-27T14:49:42;10.30;55.90
5226;DHT22;2632;51.666;7.146;2024-01-27T14:52:12;10.20;56.40
5226;DHT22;2632;51.666;7.146;2024-01-27T14:54:39;10.10;56.50
5226;DHT22;2632;51.666;7.146;2024-01-27T14:57:06;10.10;56.00
5226;DHT22;2632;51.666;7.146;2024-01-27T14:59:36;10.00;57.00
5226;DHT22;2632;51.666;7.146;2024-01-27T15:02:05;9.80;57.30
5226;DHT22;2632;51.666;7.146;2024-01-27T15:04:34;9.70;58.30
5226;DHT22;2632;51.666;7.146;2024-01-27T15:07:01;9.60;58.80
5226;DHT22;2632;51.666;7.146;2024-01-27T15:09:28;9.70;58.60
5226;DHT22;2632;51.666;7.146;2024-01-27T15:11:55;9.70;58.90
5226;DHT22;2632;51.666;7.146;2024-01-27T15:14:22;9.60;58.50
5226;DHT22;2632;51.666;7.146;2024-01-27T15:16:49;9.60;59.00
5226;DHT22;2632;51.666;7.146;2024-01-27T15:19:15;9.50;59.10
5226;DHT22;2632;51.666;7.146;2024-01-27T15:21:43;9.40;59.50
5226;DHT22;2632;51.666;7.146;2024-01-27T15:24:09;9.40;58.70
5226;DHT22;2632;51.666;7.146;2024-01-27T15:26:36;9.40;58.80
5226;DHT22;2632;51.666;7.146;2024-01-27T15:29:03;9.20;60.00
5226;DHT22;2632;51.666;7.146;2024-01-27T15:31:30;9.10;61.10
5226;DHT22;2632;51.666;7.146;2024-01-27T15:33:56;9.00;61.30
5226;DHT22;2632;51.666;7.146;2024-01-27T15:36:23;8.80;62.00
5226;DHT22;2632;51.666;7.146;2024-01-27T15:38:50;8.60;62.80
5226;DHT22;2632;51.666;7.146;2024-01-27T15:41:17;8.50;63.20
5226;DHT22;2632;51.666;7.146;2024-01-27T15:43:45;8.40;64.20
5226;DHT22;2632;51.666;7.146;2024-01-27T15:46:14;8.30;65.00
5226;DHT22;2632;51.666;7.146;2024-01-27T15:48:41;8.30;65.20
5226;DHT22;2632;51.666;7.146;2024-01-27T15:51:08;8.20;65.90
5226;DHT22;2632;51.666;7.146;2024-01-27T15:53:35;8.00;66.50
5226;DHT22;2632;51.666;7.146;2024-01-27T15:56:02;7.90;67.00
5226;DHT22;2632;51.666;7.146;2024-01-27T15:58:29;7.80;67.40
5226;DHT22;2632;51.666;7.146;2024-01-27T16:00:56;7.60;68.20
5226;DHT22;2632;51.666;7.146;2024-01-27T16:03:23;7.40;68.80
5226;DHT22;2632;51.666;7.146;2024-01-27T16:05:49;7.40;69.40
5226;DHT22;2632;51.666;7.146;2024-01-27T16:08:16;7.30;69.80
5226;DHT22;2632;51.666;7.146;2024-01-27T16:10:43;7.30;69.70
5226;DHT22;2632;51.666;7.146;2024-01-27T16:13:11;7.20;70.20
5226;DHT22;2632;51.666;7.146;2024-01-27T16:15:38;7.10;70.80
5226;DHT22;2632;51.666;7.146;2024-01-27T16:18:05;7.00;70.90